createdAt,value
2019-03-27T00:01:16.369Z,30.93
2019-03-27T00:03:48.923Z,29.40
2019-03-27T00:06:21.962Z,26.47
2019-03-27T00:08:53.855Z,31.50
2019-03-27T00:11:29.778Z,32.30
2019-03-27T00:14:03.831Z,31.10
2019-03-27T00:16:37.761Z,29.83
2019-03-27T00:19:09.260Z,29.97
2019-03-27T00:21:40.138Z,27.60
2019-03-27T00:24:12.912Z,31.67
2019-03-27T00:26:47.384Z,30.27
2019-03-27T00:29:18.942Z,31.60
2019-03-27T00:31:49.813Z,31.30
2019-03-27T00:34:24.113Z,33.73
2019-03-27T00:36:56.962Z,31.83
2019-03-27T00:39:29.781Z,32.13
2019-03-27T00:42:02.797Z,29.70
2019-03-27T00:44:34.574Z,29.73
2019-03-27T00:47:07.214Z,37.67
2019-03-27T00:49:39.282Z,30.60
2019-03-27T00:52:11.377Z,29.90
2019-03-27T00:54:44.167Z,33.97
2019-03-27T00:57:18.087Z,26.87
2019-03-27T00:59:49.607Z,34.30
2019-03-27T01:02:22.786Z,41.10
2019-03-27T01:04:56.322Z,29.87
2019-03-27T01:07:29.344Z,28.03
2019-03-27T01:10:02.628Z,40.20
2019-03-27T01:12:37.866Z,34.10
2019-03-27T01:15:14.518Z,36.03
2019-03-27T01:17:50.978Z,30.63
2019-03-27T01:20:23.536Z,36.43
2019-03-27T01:22:55.977Z,29.90
2019-03-27T01:25:28.015Z,34.10
2019-03-27T01:28:05.916Z,36.67
2019-03-27T01:30:40.868Z,33.80
2019-03-27T01:33:14.412Z,36.13
2019-03-27T01:35:45.803Z,30.77
2019-03-27T01:38:21.091Z,34.53
2019-03-27T01:40:56.950Z,38.23
2019-03-27T01:43:28.530Z,33.07
2019-03-27T01:46:00.927Z,34.60
2019-03-27T01:48:34.975Z,33.97
2019-03-27T01:51:06.778Z,44.43
2019-03-27T01:53:38.533Z,31.63
2019-03-27T01:56:11.111Z,36.57
2019-03-27T01:58:43.467Z,35.53
2019-03-27T02:01:14.198Z,32.40
2019-03-27T02:03:45.079Z,31.83
2019-03-27T02:06:17.427Z,36.70
2019-03-27T02:08:50.526Z,36.63
2019-03-27T02:11:23.622Z,36.93
2019-03-27T02:13:55.746Z,34.70
2019-03-27T02:16:27.887Z,41.23
2019-03-27T02:19:01.362Z,35.70
2019-03-27T02:21:32.886Z,31.70
2019-03-27T02:24:05.204Z,42.80
2019-03-27T02:26:37.924Z,38.57
2019-03-27T02:29:10.673Z,41.27
2019-03-27T02:31:42.866Z,38.33
2019-03-27T02:34:19.131Z,43.53
2019-03-27T02:37:00.050Z,44.43
2019-03-27T02:39:35.992Z,42.80
2019-03-27T02:42:10.537Z,38.63
2019-03-27T02:44:43.761Z,44.87
2019-03-27T02:47:15.758Z,39.10
2019-03-27T02:49:53.309Z,42.00
2019-03-27T02:52:26.488Z,35.67
2019-03-27T02:55:07.640Z,39.57
2019-03-27T02:57:47.641Z,48.10
2019-03-27T03:00:25.780Z,42.00
2019-03-27T03:03:03.221Z,38.80
2019-03-27T03:05:39.004Z,39.00
2019-03-27T03:08:11.841Z,39.57
2019-03-27T03:10:48.322Z,41.97
2019-03-27T03:13:25.305Z,45.93
2019-03-27T03:15:58.097Z,45.27
2019-03-27T03:18:31.200Z,44.33
2019-03-27T03:21:06.810Z,40.47
2019-03-27T03:23:39.961Z,43.53
2019-03-27T03:26:11.701Z,38.60
2019-03-27T03:28:42.938Z,44.83
2019-03-27T03:31:16.187Z,42.57
2019-03-27T03:33:47.496Z,44.43
2019-03-27T03:36:23.922Z,50.63
2019-03-27T03:38:58.226Z,44.40
2019-03-27T03:41:31.973Z,46.33
2019-03-27T03:44:05.652Z,44.83
2019-03-27T03:46:39.895Z,45.53
2019-03-27T03:49:11.896Z,55.03
2019-03-27T03:51:44.726Z,44.20
2019-03-27T03:54:16.316Z,46.80
2019-03-27T03:56:52.652Z,49.97
2019-03-27T03:59:28.922Z,43.30
2019-03-27T04:02:07.644Z,46.17
2019-03-27T04:04:45.777Z,47.47
2019-03-27T04:07:19.143Z,41.37
2019-03-27T04:09:53.033Z,46.70
2019-03-27T04:12:27.331Z,44.70
2019-03-27T04:15:02.505Z,46.87
2019-03-27T04:17:35.449Z,46.10
2019-03-27T04:20:07.926Z,46.57
2019-03-27T04:22:39.070Z,43.63
2019-03-27T04:25:11.019Z,44.57
2019-03-27T04:27:42.210Z,49.60
2019-03-27T04:30:13.083Z,55.10
2019-03-27T04:32:45.192Z,45.47
2019-03-27T04:35:19.860Z,45.30
2019-03-27T04:37:53.604Z,42.40
2019-03-27T04:40:25.593Z,44.90
2019-03-27T04:42:57.185Z,48.57
2019-03-27T04:45:30.487Z,47.20
2019-03-27T04:48:02.913Z,52.00
2019-03-27T04:50:34.821Z,47.33
2019-03-27T04:53:05.899Z,51.40
2019-03-27T04:55:38.703Z,46.23
2019-03-27T04:58:09.610Z,46.30
2019-03-27T05:00:40.873Z,50.77
2019-03-27T05:03:13.998Z,46.73
2019-03-27T05:05:46.725Z,49.20
2019-03-27T05:08:17.750Z,46.83
2019-03-27T05:10:48.851Z,50.00
2019-03-27T05:13:20.172Z,54.27
2019-03-27T05:15:51.830Z,58.50
2019-03-27T05:18:23.902Z,50.37
2019-03-27T05:20:55.018Z,45.00
2019-03-27T05:23:26.776Z,48.40
2019-03-27T05:25:57.956Z,54.57
2019-03-27T05:28:29.548Z,48.27
2019-03-27T05:31:00.648Z,48.50
2019-03-27T05:33:34.741Z,50.87
2019-03-27T05:36:06.508Z,44.57
2019-03-27T05:38:41.681Z,51.17
2019-03-27T05:41:16.452Z,42.90
2019-03-27T05:43:49.122Z,58.20
2019-03-27T05:46:26.466Z,51.67
2019-03-27T05:49:06.729Z,48.57
2019-03-27T05:51:38.674Z,54.23
2019-03-27T05:54:13.621Z,62.10
2019-03-27T05:56:47.279Z,58.80
2019-03-27T05:59:22.789Z,54.77
2019-03-27T06:01:56.509Z,57.87
2019-03-27T06:04:29.666Z,56.13
2019-03-27T06:07:03.757Z,49.83
2019-03-27T06:09:35.228Z,50.17
2019-03-27T06:12:06.269Z,52.97
2019-03-27T06:14:37.236Z,51.83
2019-03-27T06:17:07.919Z,63.57
2019-03-27T06:19:39.160Z,59.53
2019-03-27T06:22:10.011Z,52.07
2019-03-27T06:24:40.732Z,55.67
2019-03-27T06:27:11.423Z,57.10
2019-03-27T06:29:43.766Z,52.40
2019-03-27T06:32:14.488Z,53.43
2019-03-27T06:34:46.577Z,54.97
2019-03-27T06:37:19.056Z,53.60
2019-03-27T06:39:50.554Z,60.27
2019-03-27T06:42:21.248Z,57.80
2019-03-27T06:44:51.975Z,55.57
2019-03-27T06:47:23.801Z,61.70
2019-03-27T06:49:57.433Z,58.23
2019-03-27T06:52:28.153Z,56.20
2019-03-27T06:54:59.328Z,59.20
2019-03-27T06:57:30.037Z,58.33
2019-03-27T07:00:01.303Z,62.17
2019-03-27T07:02:32.342Z,58.47
2019-03-27T07:05:03.912Z,65.97
2019-03-27T07:07:34.620Z,57.07
2019-03-27T07:10:06.486Z,57.77
2019-03-27T07:12:37.310Z,64.90
2019-03-27T07:15:08.764Z,63.00
2019-03-27T07:17:39.470Z,74.40
2019-03-27T07:20:11.391Z,73.00
2019-03-27T07:22:42.119Z,65.00
2019-03-27T07:25:12.972Z,53.90
2019-03-27T07:27:43.670Z,78.90
2019-03-27T07:30:15.312Z,59.17
2019-03-27T07:32:46.010Z,67.00
2019-03-27T07:35:18.056Z,67.97
2019-03-27T07:37:48.777Z,67.90
2019-03-27T07:40:20.148Z,69.70
2019-03-27T07:42:50.856Z,77.17
2019-03-27T07:45:21.603Z,60.80
2019-03-27T07:47:53.319Z,68.53
2019-03-27T07:50:25.738Z,68.83
2019-03-27T07:52:56.463Z,64.67
2019-03-27T07:55:27.321Z,66.03
2019-03-27T07:57:58.027Z,65.43
2019-03-27T08:00:29.324Z,67.50
2019-03-27T08:03:00.045Z,67.93
2019-03-27T08:05:32.208Z,72.90
2019-03-27T08:08:02.922Z,74.27
2019-03-27T08:10:34.184Z,81.13
2019-03-27T08:13:04.916Z,81.00
2019-03-27T08:15:35.760Z,81.80
2019-03-27T08:18:06.615Z,74.13
2019-03-27T08:20:39.072Z,79.23
2019-03-27T08:23:09.862Z,78.73
2019-03-27T08:25:40.602Z,79.33
2019-03-27T08:28:11.304Z,77.83
2019-03-27T08:30:42.577Z,80.13
2019-03-27T08:33:13.274Z,78.40
2019-03-27T08:35:45.241Z,82.40
2019-03-27T08:38:15.967Z,97.47
2019-03-27T08:40:47.308Z,96.47
2019-03-27T08:43:21.392Z,101.07
2019-03-27T08:45:50.577Z,89.27
2019-03-27T08:48:22.374Z,101.23
2019-03-27T08:50:54.056Z,113.90
2019-03-27T08:53:24.781Z,91.53
2019-03-27T08:55:55.618Z,91.27
2019-03-27T08:58:26.350Z,96.33
2019-03-27T09:00:57.599Z,88.23
2019-03-27T09:03:28.317Z,88.07
2019-03-27T09:05:59.868Z,81.77
2019-03-27T09:08:30.664Z,79.67
2019-03-27T09:11:04.471Z,89.80
2019-03-27T09:13:34.284Z,69.37
2019-03-27T09:16:05.014Z,82.93
2019-03-27T09:18:36.063Z,74.87
2019-03-27T09:21:08.106Z,76.37
2019-03-27T09:23:39.217Z,75.50
2019-03-27T09:26:10.386Z,91.33
2019-03-27T09:28:41.105Z,77.27
2019-03-27T09:31:13.798Z,72.33
2019-03-27T09:33:44.506Z,78.30
2019-03-27T09:36:16.705Z,70.17
2019-03-27T09:38:47.390Z,77.50
2019-03-27T09:41:21.310Z,75.00
2019-03-27T09:43:51.190Z,80.13
2019-03-27T09:46:22.039Z,77.63
2019-03-27T09:48:53.345Z,85.27
2019-03-27T09:51:25.777Z,80.57
2019-03-27T09:53:56.473Z,75.13
2019-03-27T09:56:27.227Z,72.43
2019-03-27T09:58:58.022Z,68.73
2019-03-27T10:01:29.399Z,72.37
2019-03-27T10:04:00.516Z,76.50
2019-03-27T10:06:31.878Z,69.53
2019-03-27T10:09:03.211Z,59.73
2019-03-27T10:11:34.375Z,50.40
2019-03-27T10:14:05.601Z,48.97
2019-03-27T10:16:36.427Z,55.20
2019-03-27T10:19:07.163Z,63.67
2019-03-27T10:21:39.267Z,61.13
2019-03-27T10:24:09.964Z,61.47
2019-03-27T10:26:42.812Z,64.77
2019-03-27T10:29:13.702Z,63.20
2019-03-27T10:31:44.441Z,51.33
2019-03-27T10:34:15.194Z,42.93
2019-03-27T10:36:46.961Z,39.83
2019-03-27T10:39:17.684Z,55.20
2019-03-27T10:41:48.425Z,53.00
2019-03-27T10:44:19.144Z,58.83
2019-03-27T10:46:50.411Z,56.67
2019-03-27T10:49:22.604Z,59.17
2019-03-27T10:51:54.652Z,60.40
2019-03-27T10:54:25.407Z,63.83
2019-03-27T10:56:56.959Z,45.07
2019-03-27T10:59:27.650Z,40.77
2019-03-27T11:01:58.403Z,46.37
2019-03-27T11:04:29.115Z,38.83
2019-03-27T11:07:01.800Z,40.23
2019-03-27T11:09:32.635Z,38.00
2019-03-27T11:12:03.403Z,35.70
2019-03-27T11:14:38.137Z,42.87
2019-03-27T11:17:06.952Z,40.20
2019-03-27T11:19:37.655Z,37.07
2019-03-27T11:22:09.725Z,36.17
2019-03-27T11:24:40.433Z,38.87
2019-03-27T11:27:12.121Z,39.00
2019-03-27T11:29:42.830Z,29.57
2019-03-27T11:32:13.670Z,27.93
2019-03-27T11:34:44.407Z,25.30
2019-03-27T11:37:16.946Z,30.43
2019-03-27T11:39:47.643Z,28.43
2019-03-27T11:42:18.417Z,25.67
2019-03-27T11:44:49.109Z,23.20
2019-03-27T11:47:20.358Z,18.07
2019-03-27T11:49:52.386Z,20.30
2019-03-27T11:52:24.171Z,20.83
2019-03-27T11:54:54.859Z,18.07
2019-03-27T11:57:26.462Z,19.77
2019-03-27T11:59:57.154Z,21.03
2019-03-27T12:02:27.870Z,17.33
2019-03-27T12:04:58.575Z,27.57
2019-03-27T12:07:32.362Z,30.23
2019-03-27T12:10:04.614Z,25.20
2019-03-27T12:12:35.351Z,20.07
2019-03-27T12:15:07.744Z,19.50
2019-03-27T12:17:39.010Z,23.90
2019-03-27T12:20:09.918Z,19.33
2019-03-27T12:22:41.948Z,23.63
2019-03-27T12:25:12.658Z,23.47
2019-03-27T12:27:44.236Z,19.10
2019-03-27T12:30:15.314Z,20.23
2019-03-27T12:32:46.032Z,17.10
2019-03-27T12:35:16.766Z,22.80
2019-03-27T12:37:49.402Z,16.80
2019-03-27T12:40:20.117Z,21.70
2019-03-27T12:42:50.960Z,20.00
2019-03-27T12:45:21.672Z,22.97
2019-03-27T12:47:52.866Z,18.47
2019-03-27T12:50:24.258Z,19.17
2019-03-27T12:52:56.368Z,16.73
2019-03-27T12:55:27.081Z,20.00
2019-03-27T12:57:58.664Z,17.27
2019-03-27T13:00:29.384Z,16.80
2019-03-27T13:03:00.131Z,22.53
2019-03-27T13:05:30.853Z,15.63
2019-03-27T13:08:02.527Z,15.17
2019-03-27T13:10:33.240Z,16.00
2019-03-27T13:13:04.196Z,17.27
2019-03-27T13:15:34.928Z,16.67
2019-03-27T13:18:06.410Z,19.50
2019-03-27T13:20:37.133Z,15.83
2019-03-27T13:23:08.481Z,13.40
2019-03-27T13:25:39.206Z,15.87
2019-03-27T13:28:10.495Z,22.27
2019-03-27T13:30:41.202Z,17.03
2019-03-27T13:33:11.927Z,11.70
2019-03-27T13:35:42.622Z,15.97
2019-03-27T13:38:15.210Z,14.90
2019-03-27T13:40:45.901Z,14.43
2019-03-27T13:43:16.714Z,16.37
2019-03-27T13:45:47.415Z,14.60
2019-03-27T13:48:18.668Z,15.63
2019-03-27T13:50:50.966Z,15.47
2019-03-27T13:53:22.600Z,17.80
2019-03-27T13:55:53.319Z,18.20
2019-03-27T13:58:24.643Z,18.00
2019-03-27T14:00:55.355Z,18.60
2019-03-27T14:03:26.421Z,18.17
2019-03-27T14:05:57.127Z,18.20
2019-03-27T14:08:29.399Z,18.37
2019-03-27T14:11:00.132Z,16.67
2019-03-27T14:13:30.817Z,17.33
2019-03-27T14:16:01.503Z,17.00
2019-03-27T14:18:32.675Z,16.73
2019-03-27T14:21:04.381Z,16.53
2019-03-27T14:23:36.722Z,16.43
2019-03-27T14:26:07.641Z,17.20
2019-03-27T14:28:38.797Z,15.60
2019-03-27T14:31:09.520Z,16.27
2019-03-27T14:33:40.359Z,19.53
2019-03-27T14:36:10.972Z,17.97
2019-03-27T14:38:42.546Z,16.63
2019-03-27T14:41:13.241Z,19.93
2019-03-27T14:43:43.943Z,18.33
2019-03-27T14:46:15.855Z,20.63
2019-03-27T14:48:47.075Z,17.83
2019-03-27T14:51:19.252Z,15.00
2019-03-27T14:53:50.915Z,15.67
2019-03-27T14:56:21.632Z,14.63
2019-03-27T14:58:52.741Z,17.63
2019-03-27T15:01:23.430Z,15.33
2019-03-27T15:03:54.170Z,18.20
2019-03-27T15:06:24.894Z,23.90
2019-03-27T15:08:57.038Z,17.80
2019-03-27T15:11:27.728Z,15.87
2019-03-27T15:13:58.451Z,16.70
2019-03-27T15:16:29.176Z,18.03
2019-03-27T15:19:00.324Z,15.07
2019-03-27T15:21:31.021Z,16.57
2019-03-27T15:24:02.192Z,16.73
2019-03-27T15:26:32.876Z,17.90
2019-03-27T15:29:04.062Z,16.07
2019-03-27T15:31:34.799Z,18.77
2019-03-27T15:34:05.501Z,16.43
2019-03-27T15:36:36.206Z,20.93
2019-03-27T15:39:10.262Z,17.83
2019-03-27T15:41:41.030Z,19.10
2019-03-27T15:44:11.798Z,19.57
2019-03-27T15:46:42.511Z,17.73
2019-03-27T15:49:13.996Z,19.43
2019-03-27T15:51:46.318Z,16.97
2019-03-27T15:54:18.041Z,23.23
2019-03-27T15:56:48.746Z,19.27
2019-03-27T15:59:19.954Z,14.70
2019-03-27T16:01:50.654Z,21.40
2019-03-27T16:04:21.719Z,20.80
2019-03-27T16:06:52.466Z,16.80
2019-03-27T16:09:24.201Z,17.73
2019-03-27T16:11:54.921Z,18.30
2019-03-27T16:14:25.638Z,18.17
2019-03-27T16:17:12.292Z,20.40
2019-03-27T16:19:29.322Z,19.30
2019-03-27T16:22:00.068Z,21.20
2019-03-27T16:24:32.604Z,21.57
2019-03-27T16:27:04.848Z,22.63
2019-03-27T16:29:37.244Z,18.57
2019-03-27T16:32:08.034Z,18.17
2019-03-27T16:34:38.852Z,22.70
2019-03-27T16:37:09.590Z,20.10
2019-03-27T16:39:42.213Z,21.50
2019-03-27T16:42:12.951Z,18.07
2019-03-27T16:44:43.698Z,18.20
2019-03-27T16:47:14.415Z,19.47
2019-03-27T16:49:45.746Z,16.97
2019-03-27T16:52:18.470Z,15.77
2019-03-27T16:54:50.885Z,14.67
2019-03-27T16:57:21.619Z,21.70
2019-03-27T16:59:53.185Z,17.80
2019-03-27T17:02:23.894Z,18.40
2019-03-27T17:04:54.642Z,15.20
2019-03-27T17:07:25.402Z,19.17
2019-03-27T17:09:57.842Z,14.70
2019-03-27T17:12:31.359Z,14.30
2019-03-27T17:15:01.069Z,17.20
2019-03-27T17:17:31.801Z,17.23
2019-03-27T17:20:03.021Z,18.27
2019-03-27T17:22:33.731Z,15.87
2019-03-27T17:25:05.176Z,15.60
2019-03-27T17:27:35.905Z,15.33
2019-03-27T17:30:08.317Z,19.37
2019-03-27T17:32:39.024Z,16.37
2019-03-27T17:35:09.757Z,14.67
2019-03-27T17:37:40.464Z,20.80
2019-03-27T17:40:13.510Z,20.27
2019-03-27T17:42:44.246Z,29.43
2019-03-27T17:45:14.975Z,18.27
2019-03-27T17:47:45.736Z,17.13
2019-03-27T17:50:16.904Z,15.77
2019-03-27T17:52:48.391Z,17.37
2019-03-27T17:55:20.458Z,18.10
2019-03-27T17:57:51.181Z,14.50
2019-03-27T18:00:52.890Z,16.60
2019-03-27T18:03:23.550Z,21.57
2019-03-27T18:05:54.623Z,20.27
2019-03-27T18:08:25.342Z,21.83
2019-03-27T18:10:57.095Z,22.83
2019-03-27T18:13:27.821Z,26.77
2019-03-27T18:15:58.563Z,18.40
2019-03-27T18:18:29.291Z,20.30
2019-03-27T18:21:00.469Z,22.07
2019-03-27T18:23:44.801Z,19.47
2019-03-27T18:26:04.300Z,18.93
2019-03-27T18:28:34.998Z,18.60
2019-03-27T18:31:06.266Z,21.03
2019-03-27T18:33:36.947Z,19.30
2019-03-27T18:36:08.107Z,20.23
2019-03-27T18:38:38.807Z,21.87
2019-03-27T18:41:10.662Z,21.97
2019-03-27T18:43:41.380Z,22.77
2019-03-27T18:46:12.231Z,24.97
2019-03-27T18:48:42.994Z,22.10
2019-03-27T18:51:14.290Z,23.80
2019-03-27T18:53:58.482Z,21.47
2019-03-27T18:56:19.172Z,22.20
2019-03-27T18:58:49.912Z,22.17
2019-03-27T19:01:21.155Z,25.77
2019-03-27T19:03:51.935Z,30.07
2019-03-27T19:06:22.699Z,27.27
2019-03-27T19:08:53.428Z,28.20
2019-03-27T19:11:26.055Z,29.00
2019-03-27T19:13:56.764Z,26.43
2019-03-27T19:16:27.698Z,24.67
2019-03-27T19:18:58.402Z,22.73
2019-03-27T19:21:29.727Z,22.43
2019-03-27T19:24:13.327Z,26.27
2019-03-27T19:26:33.698Z,29.23
2019-03-27T19:29:04.434Z,25.07
2019-03-27T19:31:35.697Z,27.70
2019-03-27T19:34:06.434Z,24.03
2019-03-27T19:36:37.592Z,29.37
2019-03-27T19:39:09.013Z,22.80
2019-03-27T19:41:40.296Z,22.27
2019-03-27T19:44:11.038Z,22.53
2019-03-27T19:46:41.875Z,24.93
2019-03-27T19:49:12.589Z,29.33
2019-03-27T19:51:43.875Z,29.23
2019-03-27T19:54:26.633Z,27.23
2019-03-27T19:56:48.606Z,27.10
2019-03-27T19:59:19.309Z,30.07
2019-03-27T20:01:50.685Z,25.43
2019-03-27T20:04:21.960Z,27.27
2019-03-27T20:06:53.086Z,25.30
2019-03-27T20:09:23.824Z,20.17
2019-03-27T20:11:56.402Z,25.30
2019-03-27T20:14:27.151Z,32.50
2019-03-27T20:16:57.962Z,30.03
2019-03-27T20:19:28.685Z,22.57
2019-03-27T20:21:59.957Z,31.87
2019-03-27T20:24:40.383Z,29.73
2019-03-27T20:27:04.183Z,23.93
2019-03-27T20:29:35.013Z,23.73
2019-03-27T20:34:41.977Z,24.73
2019-03-27T20:37:12.864Z,29.70
2019-03-27T20:39:43.602Z,25.47
2019-03-27T20:42:15.462Z,30.37
2019-03-27T20:44:46.638Z,26.30
2019-03-27T20:47:17.350Z,29.50
2019-03-27T20:49:49.359Z,27.87
2019-03-27T20:52:20.432Z,30.03
2019-03-27T20:54:55.279Z,25.00
2019-03-27T20:57:24.793Z,29.50
2019-03-27T20:59:55.550Z,31.13
2019-03-27T21:02:26.243Z,32.70
2019-03-27T21:04:57.816Z,22.13
2019-03-27T21:07:29.092Z,23.63
2019-03-27T21:09:59.897Z,32.40
2019-03-27T21:12:30.638Z,24.53
2019-03-27T21:15:04.144Z,34.87
2019-03-27T21:17:45.243Z,30.17
2019-03-27T21:20:17.079Z,30.20
2019-03-27T21:22:52.285Z,28.23
2019-03-27T21:25:24.655Z,23.90
2019-03-27T21:27:56.386Z,29.67
2019-03-27T21:30:28.896Z,28.33
2019-03-27T21:33:03.739Z,31.63
2019-03-27T21:35:35.858Z,25.17
2019-03-27T21:38:13.778Z,29.17
2019-03-27T21:40:46.310Z,25.67
2019-03-27T21:43:20.621Z,30.40
2019-03-27T21:45:54.275Z,34.73
2019-03-27T21:48:32.542Z,32.50
2019-03-27T21:51:04.385Z,27.50
2019-03-27T21:53:37.289Z,29.20
2019-03-27T21:56:13.007Z,32.10
2019-03-27T21:58:45.075Z,26.57
2019-03-27T22:01:16.119Z,32.63
2019-03-27T22:03:48.734Z,30.63
2019-03-27T22:06:19.966Z,36.60
2019-03-27T22:08:50.770Z,35.83
2019-03-27T22:11:21.517Z,27.27
2019-03-27T22:13:53.283Z,31.40
2019-03-27T22:16:24.484Z,25.63
2019-03-27T22:18:57.426Z,29.03
2019-03-27T22:21:29.743Z,33.57
2019-03-27T22:24:02.609Z,26.10
2019-03-27T22:26:34.138Z,31.63
2019-03-27T22:29:06.265Z,27.03
2019-03-27T22:31:38.996Z,27.33
2019-03-27T22:34:13.323Z,28.77
2019-03-27T22:36:45.024Z,27.87
2019-03-27T22:39:17.048Z,26.40
2019-03-27T22:41:51.551Z,28.47
2019-03-27T22:44:24.262Z,27.00
2019-03-27T22:46:57.131Z,33.33
2019-03-27T22:49:30.075Z,35.37
2019-03-27T22:52:03.433Z,29.90
2019-03-27T22:54:36.047Z,34.17
2019-03-27T22:57:07.472Z,33.30
2019-03-27T22:59:39.206Z,34.03
2019-03-27T23:02:11.419Z,30.33
2019-03-27T23:04:45.844Z,31.97
2019-03-27T23:07:18.481Z,35.77
2019-03-27T23:09:49.958Z,31.27
2019-03-27T23:12:21.999Z,30.47
2019-03-27T23:14:54.362Z,34.43
2019-03-27T23:17:32.825Z,33.70
2019-03-27T23:20:07.114Z,41.53
2019-03-27T23:22:40.954Z,33.47
2019-03-27T23:25:15.546Z,36.77
2019-03-27T23:27:50.773Z,36.80
2019-03-27T23:30:23.469Z,32.43
2019-03-27T23:32:55.507Z,31.80
2019-03-27T23:35:32.415Z,33.80
2019-03-27T23:38:09.446Z,33.23
2019-03-27T23:40:47.537Z,36.77
2019-03-27T23:43:20.734Z,37.40
2019-03-27T23:45:54.041Z,35.43
2019-03-27T23:48:26.624Z,39.87
2019-03-27T23:50:58.879Z,41.10
2019-03-27T23:53:30.667Z,38.37
2019-03-27T23:56:15.871Z,39.80
2019-03-27T23:58:38.137Z,39.07
